Time;durP1;ratioP1;P1;durP2;ratioP2;P2;SDS_P1;SDS_P2;PMS_P1;PMS_P2;Temp;Humidity;BMP_temperature;BMP_pressure;BME280_temperature;BME280_humidity;BME280_pressure;Samples;Min_cycle;Max_cycle;Signal;HPM_P1;HPM_P2
2022/07/11 00:01:56;;;;;;;2.58;1.70;;;;;;;;;;10495653;28;20032;-76
2022/07/11 00:07:00;;;;;;;4.28;1.85;;;;;;;;;;10474571;28;20086;-75
2022/07/11 00:12:03;;;;;;;5.45;1.65;;;;;;;;;;10487402;28;20036;-75
2022/07/11 00:17:07;;;;;;;4.70;1.60;;;;;;;;;;10496895;28;20044;-76
2022/07/11 00:22:11;;;;;;;3.88;1.52;;;;;;;;;;10470734;28;20556;-76
2022/07/11 00:27:14;;;;;;;3.30;1.38;;;;;;;;;;10484715;28;20037;-77
2022/07/11 00:32:18;;;;;;;4.65;1.70;;;;;;;;;;10476241;28;20044;-77
2022/07/11 00:37:22;;;;;;;1.83;1.35;;;;;;;;;;10462538;28;20116;-76
2022/07/11 00:42:24;;;;;;;2.58;1.23;;;;;;;;;;10488976;28;20041;-77
2022/07/11 00:47:29;;;;;;;3.17;1.60;;;;;;;;;;10484001;28;20047;-77
2022/07/11 00:52:34;;;;;;;2.42;1.27;;;;;;;;;;10492800;28;20055;-76
2022/07/11 00:57:37;;;;;;;5.18;1.63;;;;;;;;;;10488810;28;20036;-76
2022/07/11 01:02:40;;;;;;;1.65;1.10;;;;;;;;;;10488475;28;20055;-77
2022/07/11 01:07:44;;;;;;;2.17;1.60;;;;;;;;;;10509152;28;20047;-77
2022/07/11 01:12:47;;;;;;;3.90;1.13;;;;;;;;;;10489532;28;20052;-77
2022/07/11 01:18:00;;;;;;;3.40;1.00;;;;;;;;;;10486167;28;20052;-75
2022/07/11 01:23:09;;;;;;;1.77;1.27;;;;;;;;;;10482832;28;20040;-75
2022/07/11 01:28:18;;;;;;;1.10;1.00;;;;;;;;;;10490432;28;20048;-75
2022/07/11 01:33:23;;;;;;;2.00;1.17;;;;;;;;;;10472340;28;20039;-76
2022/07/11 01:38:29;;;;;;;3.40;1.10;;;;;;;;;;10492357;28;20033;-76
2022/07/11 01:43:32;;;;;;;4.95;1.30;;;;;;;;;;10498411;28;20200;-76
2022/07/11 01:48:35;;;;;;;3.33;1.40;;;;;;;;;;10501279;28;20558;-76
2022/07/11 01:53:39;;;;;;;1.75;1.05;;;;;;;;;;10480802;28;20105;-77
2022/07/11 01:58:42;;;;;;;2.25;1.02;;;;;;;;;;10491705;28;20499;-77
2022/07/11 02:03:45;;;;;;;3.33;1.30;;;;;;;;;;10494947;28;20039;-77
2022/07/11 02:08:48;;;;;;;;;;;;;;;;;;10481144;28;20037;-77
2022/07/11 02:13:52;;;;;;;1.35;1.05;;;;;;;;;;10498071;28;19920;-77
2022/07/11 02:18:55;;;;;;;2.55;1.10;;;;;;;;;;10491222;28;20032;-77
2022/07/11 02:23:58;;;;;;;2.03;1.00;;;;;;;;;;10489972;28;20451;-76
2022/07/11 02:29:03;;;;;;;1.03;0.90;;;;;;;;;;10492495;28;20488;-78
2022/07/11 02:34:05;;;;;;;1.63;0.88;;;;;;;;;;10474044;28;20523;-75
2022/07/11 02:39:09;;;;;;;;;;;;;;;;;;10477665;28;20032;-76
2022/07/11 02:44:14;;;;;;;2.38;0.85;;;;;;;;;;10486168;28;19942;-76
2022/07/11 02:49:16;;;;;;;3.38;1.00;;;;;;;;;;10480040;28;20063;-75
2022/07/11 02:54:19;;;;;;;2.15;1.27;;;;;;;;;;10476194;28;20587;-76
2022/07/11 02:59:23;;;;;;;3.85;1.75;;;;;;;;;;10494596;28;20521;-77
2022/07/11 03:04:27;;;;;;;2.08;1.20;;;;;;;;;;10473911;28;20032;-77
2022/07/11 03:09:30;;;;;;;2.70;1.30;;;;;;;;;;10478013;28;20033;-77
2022/07/11 03:14:34;;;;;;;1.15;1.00;;;;;;;;;;10481462;28;20036;-76
2022/07/11 03:19:37;;;;;;;1.52;1.10;;;;;;;;;;10477125;28;20057;-76
2022/07/11 03:24:41;;;;;;;5.80;1.58;;;;;;;;;;10479276;28;20087;-77
2022/07/11 03:29:45;;;;;;;2.70;0.93;;;;;;;;;;10484487;28;20070;-76
2022/07/11 03:40:06;;;;;;;1.70;1.20;;;;;;;;;;10496553;28;20043;-74
2022/07/11 03:45:10;;;;;;;2.25;1.13;;;;;;;;;;10494372;28;20036;-76
2022/07/11 03:50:13;;;;;;;2.35;0.90;;;;;;;;;;10471607;28;20090;-74
2022/07/11 03:55:16;;;;;;;5.93;1.08;;;;;;;;;;10474273;28;20072;-76
2022/07/11 04:00:20;;;;;;;3.80;1.15;;;;;;;;;;10474384;28;20522;-76
2022/07/11 04:05:24;;;;;;;3.17;1.30;;;;;;;;;;10491360;28;20653;-75
2022/07/11 04:10:26;;;;;;;2.38;1.08;;;;;;;;;;10478251;28;20109;-76
2022/07/11 04:15:30;;;;;;;3.08;1.27;;;;;;;;;;10490718;28;20052;-75
2022/07/11 04:20:33;;;;;;;2.03;1.05;;;;;;;;;;10480380;28;20542;-76
2022/07/11 04:25:36;;;;;;;3.07;1.10;;;;;;;;;;10479402;28;20610;-76
2022/07/11 04:30:40;;;;;;;3.05;1.27;;;;;;;;;;10472756;28;20135;-77
2022/07/11 04:35:43;;;;;;;3.72;1.10;;;;;;;;;;10487123;28;20118;-76
2022/07/11 04:40:47;;;;;;;3.45;1.20;;;;;;;;;;10474083;28;20060;-75
2022/07/11 04:45:53;;;;;;;5.47;1.15;;;;;;;;;;10496948;28;20056;-76
2022/07/11 04:51:01;;;;;;;4.43;1.20;;;;;;;;;;10503141;28;20040;-76
2022/07/11 04:56:06;;;;;;;2.58;1.40;;;;;;;;;;10483136;28;20800;-75
2022/07/11 05:01:10;;;;;;;4.10;1.20;;;;;;;;;;10487825;28;20661;-76
2022/07/11 05:06:13;;;;;;;2.58;1.08;;;;;;;;;;10479116;28;20060;-77
2022/07/11 05:11:16;;;;;;;3.10;1.08;;;;;;;;;;10484735;28;20067;-75
2022/07/11 05:16:20;;;;;;;4.80;1.25;;;;;;;;;;10498065;28;20037;-76
2022/07/11 05:21:23;;;;;;;1.92;1.10;;;;;;;;;;10501016;28;20059;-74
2022/07/11 05:26:27;;;;;;;2.13;0.90;;;;;;;;;;10487470;28;20032;-75
2022/07/11 05:31:33;;;;;;;4.35;0.90;;;;;;;;;;10485435;28;20132;-76
2022/07/11 05:36:35;;;;;;;3.47;1.08;;;;;;;;;;10478746;28;20046;-76
2022/07/11 05:41:38;;;;;;;1.30;0.80;;;;;;;;;;10487085;28;20715;-77
2022/07/11 05:46:42;;;;;;;3.60;1.10;;;;;;;;;;10474284;28;20118;-75
2022/07/11 05:51:46;;;;;;;4.03;0.95;;;;;;;;;;10477846;28;20052;-76
2022/07/11 05:56:49;;;;;;;1.95;0.82;;;;;;;;;;10485500;28;20487;-77
2022/07/11 06:01:53;;;;;;;1.50;1.10;;;;;;;;;;10503641;28;20041;-76
2022/07/11 06:06:57;;;;;;;1.27;0.82;;;;;;;;;;10494677;28;20122;-76
2022/07/11 06:12:00;;;;;;;0.40;0.40;;;;;;;;;;10487027;28;20045;-76
2022/07/11 06:17:04;;;;;;;2.23;0.90;;;;;;;;;;10481764;28;20036;-76
2022/07/11 06:22:07;;;;;;;2.88;0.90;;;;;;;;;;10458967;28;20124;-77
2022/07/11 06:27:10;;;;;;;3.50;1.23;;;;;;;;;;10468688;28;20085;-76
2022/07/11 06:32:14;;;;;;;3.50;1.00;;;;;;;;;;10483827;28;20622;-75
2022/07/11 06:37:17;;;;;;;1.83;1.10;;;;;;;;;;10483612;28;20094;-75
2022/07/11 06:42:19;;;;;;;1.93;1.00;;;;;;;;;;10467072;28;20128;-76
2022/07/11 06:47:28;;;;;;;3.75;1.33;;;;;;;;;;10468998;28;20127;-76
2022/07/11 06:52:31;;;;;;;3.20;1.30;;;;;;;;;;10496753;28;20055;-76
2022/07/11 06:57:34;;;;;;;1.85;0.75;;;;;;;;;;10488226;28;20036;-76
2022/07/11 07:02:39;;;;;;;2.30;1.20;;;;;;;;;;10471201;28;20055;-75
2022/07/11 07:07:43;;;;;;;2.50;1.27;;;;;;;;;;10492753;28;20036;-75
2022/07/11 07:12:46;;;;;;;3.40;1.80;;;;;;;;;;10467530;28;20508;-76
2022/07/11 07:17:50;;;;;;;1.73;1.20;;;;;;;;;;10493161;28;20306;-76
2022/07/11 07:22:53;;;;;;;3.25;1.55;;;;;;;;;;10483595;28;20120;-76
2022/07/11 07:27:56;;;;;;;1.65;1.23;;;;;;;;;;10466146;28;20137;-77
2022/07/11 07:33:00;;;;;;;3.70;1.30;;;;;;;;;;10475542;28;20098;-76
2022/07/11 07:38:03;;;;;;;3.35;1.58;;;;;;;;;;10477929;28;20050;-76
2022/07/11 07:43:06;;;;;;;4.28;1.98;;;;;;;;;;10467512;28;20480;-77
2022/07/11 07:48:10;;;;;;;6.45;1.67;;;;;;;;;;10469569;28;20459;-77
2022/07/11 07:53:13;;;;;;;5.50;1.67;;;;;;;;;;10463952;28;20055;-76
2022/07/11 07:58:16;;;;;;;;;;;;;;;;;;10487681;28;20043;-75
2022/07/11 08:03:20;;;;;;;4.23;1.40;;;;;;;;;;10468828;28;20003;-77
2022/07/11 08:08:22;;;;;;;3.58;1.40;;;;;;;;;;10473538;28;20044;-77
2022/07/11 08:13:25;;;;;;;4.55;1.65;;;;;;;;;;10470198;28;20480;-76
2022/07/11 08:18:29;;;;;;;2.60;1.23;;;;;;;;;;10469400;28;20068;-76
2022/07/11 08:23:33;;;;;;;2.67;1.13;;;;;;;;;;10488155;28;20036;-77
2022/07/11 08:28:36;;;;;;;5.03;1.35;;;;;;;;;;10490988;28;20083;-76
2022/07/11 08:33:40;;;;;;;3.08;1.23;;;;;;;;;;10470688;28;20646;-76
2022/07/11 08:38:46;;;;;;;2.08;1.23;;;;;;;;;;10491941;28;20099;-76
2022/07/11 08:43:49;;;;;;;1.52;0.90;;;;;;;;;;10466578;28;20040;-76
2022/07/11 08:48:54;;;;;;;3.45;1.30;;;;;;;;;;10486412;28;20033;-76
2022/07/11 08:53:56;;;;;;;3.55;1.20;;;;;;;;;;10487970;28;20032;-74
2022/07/11 08:58:59;;;;;;;4.10;1.80;;;;;;;;;;10460157;28;20098;-76
2022/07/11 09:04:05;;;;;;;1.10;1.00;;;;;;;;;;10481666;28;20094;-75
2022/07/11 09:09:08;;;;;;;2.53;1.20;;;;;;;;;;10489550;28;20481;-76
2022/07/11 09:14:20;;;;;;;2.15;0.80;;;;;;;;;;10481421;28;20033;-76
2022/07/11 09:19:31;;;;;;;1.35;0.80;;;;;;;;;;10472428;28;20036;-75
2022/07/11 09:29:56;;;;;;;;;;;;;;;;;;10495402;28;20052;-77
2022/07/11 09:35:03;;;;;;;0.73;0.70;;;;;;;;;;10481899;28;19971;-77
2022/07/11 09:40:12;;;;;;;0.88;0.60;;;;;;;;;;10479457;28;20799;-76
2022/07/11 09:45:21;;;;;;;1.83;1.20;;;;;;;;;;10500306;28;20049;-76
2022/07/11 09:50:26;;;;;;;0.57;0.57;;;;;;;;;;10494074;28;20040;-76
2022/07/11 09:55:29;;;;;;;2.85;0.85;;;;;;;;;;10473526;28;20332;-75
2022/07/11 10:00:53;;;;;;;0.63;0.63;;;;;;;;;;10492121;28;20036;-77
2022/07/11 10:05:57;;;;;;;0.40;0.40;;;;;;;;;;10483490;28;20108;-77
2022/07/11 10:11:00;;;;;;;0.98;0.60;;;;;;;;;;10474004;28;20067;-77
2022/07/11 10:16:05;;;;;;;1.75;0.70;;;;;;;;;;10497616;28;20041;-77
2022/07/11 10:21:12;;;;;;;2.70;0.70;;;;;;;;;;10485602;28;20135;-76
2022/07/11 10:26:17;;;;;;;0.95;0.60;;;;;;;;;;10479992;28;20852;-78
2022/07/11 10:31:21;;;;;;;0.35;0.30;;;;;;;;;;10479476;28;20082;-77
2022/07/11 10:36:29;;;;;;;1.42;0.90;;;;;;;;;;10497683;28;20060;-77
2022/07/11 10:41:32;;;;;;;0.85;0.55;;;;;;;;;;10495837;28;20036;-77
2022/07/11 10:46:35;;;;;;;0.60;0.40;;;;;;;;;;10479934;28;20036;-77
2022/07/11 10:51:47;;;;;;;1.98;0.80;;;;;;;;;;10479063;28;20064;-77
2022/07/11 10:57:14;;;;;;;0.80;0.50;;;;;;;;;;10491485;28;20492;-76
2022/07/11 11:02:17;;;;;;;1.75;0.68;;;;;;;;;;10483807;28;20036;-78
2022/07/11 11:07:35;;;;;;;2.95;0.80;;;;;;;;;;10473473;28;20055;-76
2022/07/11 11:12:58;;;;;;;0.40;0.35;;;;;;;;;;10487830;28;20028;-76
2022/07/11 11:18:17;;;;;;;0.93;0.50;;;;;;;;;;10486300;28;20375;-77
2022/07/11 11:23:23;;;;;;;0.50;0.50;;;;;;;;;;10477219;28;20048;-76
2022/07/11 11:28:26;;;;;;;0.60;0.50;;;;;;;;;;10491610;28;20559;-75
2022/07/11 11:33:29;;;;;;;1.02;0.70;;;;;;;;;;10463394;28;20048;-78
2022/07/11 11:38:35;;;;;;;1.65;0.50;;;;;;;;;;10482176;28;20032;-78
2022/07/11 11:43:38;;;;;;;1.95;1.30;;;;;;;;;;10490537;28;20040;-77
2022/07/11 11:48:45;;;;;;;2.50;1.17;;;;;;;;;;10469498;28;20072;-78
2022/07/11 11:53:49;;;;;;;0.82;0.80;;;;;;;;;;10476526;28;20549;-78
2022/07/11 11:58:52;;;;;;;2.38;0.80;;;;;;;;;;10484235;28;21320;-78
2022/07/11 12:03:56;;;;;;;2.95;1.58;;;;;;;;;;10481471;28;20045;-78
2022/07/11 12:09:02;;;;;;;2.88;0.90;;;;;;;;;;10490331;28;20043;-78
2022/07/11 12:14:06;;;;;;;1.15;0.75;;;;;;;;;;10488686;28;20525;-77
2022/07/11 12:19:11;;;;;;;1.45;0.90;;;;;;;;;;10476553;28;20060;-77
2022/07/11 12:24:18;;;;;;;4.50;1.70;;;;;;;;;;10484002;28;20422;-78
2022/07/11 12:29:22;;;;;;;2.53;0.95;;;;;;;;;;10475805;28;20037;-77
2022/07/11 12:34:27;;;;;;;1.27;1.00;;;;;;;;;;10474172;28;20056;-77
2022/07/11 12:39:32;;;;;;;2.35;0.90;;;;;;;;;;10476428;28;20049;-77
2022/07/11 12:49:56;;;;;;;6.50;1.85;;;;;;;;;;10485802;28;20396;-76
2022/07/11 12:55:02;;;;;;;1.40;0.90;;;;;;;;;;10472981;28;20044;-78
2022/07/11 13:00:16;;;;;;;1.48;1.00;;;;;;;;;;10491716;28;20039;-78
2022/07/11 13:05:19;;;;;;;1.17;1.00;;;;;;;;;;10474137;28;20044;-78
2022/07/11 13:10:24;;;;;;;1.42;1.13;;;;;;;;;;10500319;28;20052;-77
2022/07/11 13:15:27;;;;;;;0.80;0.80;;;;;;;;;;10482010;28;20178;-77
2022/07/11 13:20:29;;;;;;;1.38;1.02;;;;;;;;;;10480650;28;20041;-78
2022/07/11 13:25:34;;;;;;;2.47;0.98;;;;;;;;;;10492142;28;20036;-76
2022/07/11 13:30:39;;;;;;;1.23;0.90;;;;;;;;;;10464582;28;20052;-79
2022/07/11 13:36:01;;;;;;;4.03;0.90;;;;;;;;;;10488308;28;20672;-75
2022/07/11 13:41:06;;;;;;;1.77;0.70;;;;;;;;;;10468884;28;20091;-78
2022/07/11 13:46:18;;;;;;;;;;;;;;;;;;10466160;28;20067;-78
2022/07/11 13:51:23;;;;;;;1.48;0.80;;;;;;;;;;10477504;28;20346;-78
2022/07/11 13:56:28;;;;;;;1.00;0.90;;;;;;;;;;10472098;28;20175;-78
2022/07/11 14:01:31;;;;;;;2.40;0.90;;;;;;;;;;10497782;28;20101;-78
2022/07/11 14:06:36;;;;;;;1.55;0.90;;;;;;;;;;10496656;28;20093;-77
2022/07/11 14:11:58;;;;;;;1.73;1.27;;;;;;;;;;10487028;28;20046;-78
2022/07/11 14:17:01;;;;;;;7.00;4.60;;;;;;;;;;10496471;28;20040;-77
2022/07/11 14:22:05;;;;;;;3.50;1.40;;;;;;;;;;10491505;28;20025;-76
2022/07/11 14:27:09;;;;;;;3.25;1.00;;;;;;;;;;10503794;28;20045;-78
2022/07/11 14:32:12;;;;;;;0.82;0.82;;;;;;;;;;10488173;28;20044;-77
2022/07/11 14:37:15;;;;;;;1.25;0.77;;;;;;;;;;10475360;28;20040;-78
2022/07/11 14:42:20;;;;;;;0.70;0.70;;;;;;;;;;10471621;28;20152;-78
2022/07/11 14:47:42;;;;;;;1.40;0.90;;;;;;;;;;10486581;28;20028;-77
2022/07/11 14:52:45;;;;;;;1.63;1.23;;;;;;;;;;10475476;28;20059;-78
2022/07/11 14:57:49;;;;;;;1.45;1.00;;;;;;;;;;10476701;28;20076;-78
2022/07/11 15:13:36;;;;;;;2.72;1.50;;;;;;;;;;10486781;28;20508;-78
2022/07/11 15:18:40;;;;;;;1.95;0.70;;;;;;;;;;10469906;28;20048;-77
2022/07/11 15:23:43;;;;;;;5.50;3.75;;;;;;;;;;10489225;28;20032;-78
2022/07/11 15:28:47;;;;;;;3.47;0.95;;;;;;;;;;10467887;28;20044;-76
2022/07/11 15:33:51;;;;;;;2.10;0.80;;;;;;;;;;10486345;28;20055;-77
2022/07/11 15:38:56;;;;;;;2.03;0.90;;;;;;;;;;10504299;28;20549;-78
2022/07/11 15:44:00;;;;;;;2.47;0.98;;;;;;;;;;10474487;28;20045;-79
2022/07/11 15:49:02;;;;;;;3.45;1.92;;;;;;;;;;10480067;28;20048;-78
2022/07/11 15:54:05;;;;;;;7.60;3.95;;;;;;;;;;10484174;28;20032;-79
2022/07/11 15:59:09;;;;;;;2.92;1.00;;;;;;;;;;10475247;28;20036;-78
2022/07/11 16:04:12;;;;;;;5.72;3.25;;;;;;;;;;10493364;28;20040;-78
2022/07/11 16:09:16;;;;;;;1.75;1.50;;;;;;;;;;10478477;28;20036;-77
2022/07/11 16:14:20;;;;;;;2.08;0.93;;;;;;;;;;10485593;28;20059;-77
2022/07/11 16:19:25;;;;;;;3.30;1.60;;;;;;;;;;10472977;28;20037;-78
2022/07/11 16:24:28;;;;;;;1.83;1.15;;;;;;;;;;10481222;28;20064;-77
2022/07/11 16:29:32;;;;;;;1.48;1.00;;;;;;;;;;10467512;28;20048;-75
2022/07/11 16:34:35;;;;;;;4.80;1.90;;;;;;;;;;10484099;28;20085;-78
2022/07/11 16:45:04;;;;;;;5.65;3.65;;;;;;;;;;10486734;28;20548;-78
2022/07/11 16:50:07;;;;;;;2.95;1.85;;;;;;;;;;10468257;28;20384;-78
2022/07/11 16:55:10;;;;;;;10.73;5.78;;;;;;;;;;10475790;28;20045;-79
2022/07/11 17:00:15;;;;;;;8.00;4.65;;;;;;;;;;10485270;28;20040;-75
2022/07/11 17:05:17;;;;;;;2.72;1.48;;;;;;;;;;10468891;28;20048;-78
2022/07/11 17:10:20;;;;;;;1.67;1.10;;;;;;;;;;10491945;28;20089;-79
2022/07/11 17:15:24;;;;;;;1.63;1.10;;;;;;;;;;10486267;28;20535;-77
2022/07/11 17:20:27;;;;;;;6.00;2.95;;;;;;;;;;10479818;28;20456;-78
2022/07/11 17:25:30;;;;;;;2.13;1.30;;;;;;;;;;10480420;28;20036;-78
2022/07/11 17:30:34;;;;;;;3.17;2.03;;;;;;;;;;10491162;28;20454;-79
2022/07/11 17:35:36;;;;;;;2.65;1.60;;;;;;;;;;10481160;28;20098;-79
2022/07/11 17:40:40;;;;;;;11.27;5.72;;;;;;;;;;10478975;28;20076;-78
2022/07/11 17:45:47;;;;;;;1.67;1.40;;;;;;;;;;10475518;28;20048;-77
2022/07/11 17:50:50;;;;;;;3.25;1.63;;;;;;;;;;10483838;28;20122;-79
2022/07/11 17:56:13;;;;;;;5.07;2.47;;;;;;;;;;10482324;28;20316;-78
2022/07/11 18:01:18;;;;;;;7.72;4.43;;;;;;;;;;10500253;28;20040;-79
2022/07/11 18:06:21;;;;;;;6.65;2.45;;;;;;;;;;10500423;28;20041;-77
2022/07/11 18:11:24;;;;;;;3.72;2.00;;;;;;;;;;10494195;28;20047;-78
2022/07/11 18:16:28;;;;;;;3.97;1.83;;;;;;;;;;10476169;28;20064;-78
2022/07/11 18:21:32;;;;;;;3.03;2.13;;;;;;;;;;10493465;28;20040;-79
2022/07/11 18:26:35;;;;;;;3.05;1.42;;;;;;;;;;10498114;28;20458;-78
2022/07/11 18:31:39;;;;;;;6.05;1.88;;;;;;;;;;10485398;28;20431;-80
2022/07/11 18:36:42;;;;;;;3.22;1.73;;;;;;;;;;10500870;28;20037;-79
2022/07/11 18:41:44;;;;;;;4.70;2.88;;;;;;;;;;10480631;28;20040;-79
2022/07/11 18:46:49;;;;;;;10.52;5.88;;;;;;;;;;10474790;28;20044;-78
2022/07/11 18:51:53;;;;;;;4.35;2.63;;;;;;;;;;10467983;28;20037;-77
2022/07/11 18:56:56;;;;;;;4.65;2.25;;;;;;;;;;10467706;28;20075;-77
2022/07/11 19:02:00;;;;;;;6.57;3.05;;;;;;;;;;10466816;28;20064;-76
2022/07/11 19:07:03;;;;;;;4.07;2.15;;;;;;;;;;10487797;28;20142;-78
2022/07/11 19:12:06;;;;;;;4.18;1.95;;;;;;;;;;10480285;28;20028;-77
2022/07/11 19:17:10;;;;;;;7.60;2.10;;;;;;;;;;10477113;28;20064;-76
2022/07/11 19:22:15;;;;;;;3.75;2.00;;;;;;;;;;10485349;28;20036;-78
2022/07/11 19:27:17;;;;;;;3.35;2.13;;;;;;;;;;10481209;28;20052;-79
2022/07/11 19:32:21;;;;;;;2.80;1.80;;;;;;;;;;10465668;28;20110;-77
2022/07/11 19:37:24;;;;;;;4.03;2.00;;;;;;;;;;10478612;28;21007;-77
2022/07/11 19:42:28;;;;;;;3.23;2.07;;;;;;;;;;10459035;28;20036;-77
2022/07/11 19:47:32;;;;;;;5.13;2.20;;;;;;;;;;10457057;28;20716;-69
2022/07/11 19:52:35;;;;;;;3.70;2.20;;;;;;;;;;10480927;28;20033;-70
2022/07/11 19:57:37;;;;;;;6.00;2.47;;;;;;;;;;10465230;28;20211;-71
2022/07/11 20:02:42;;;;;;;3.60;2.30;;;;;;;;;;10474902;28;20054;-71
2022/07/11 20:07:45;;;;;;;5.32;3.00;;;;;;;;;;10481365;28;20461;-70
2022/07/11 20:12:49;;;;;;;4.30;2.75;;;;;;;;;;10460064;28;20104;-70
2022/07/11 20:17:54;;;;;;;11.55;6.30;;;;;;;;;;10488626;28;20059;-75
2022/07/11 20:22:58;;;;;;;3.70;2.50;;;;;;;;;;10474146;28;20041;-78
2022/07/11 20:28:01;;;;;;;4.65;2.33;;;;;;;;;;10474003;28;20045;-76
2022/07/11 20:33:05;;;;;;;3.63;2.40;;;;;;;;;;10481488;28;20040;-76
2022/07/11 20:38:09;;;;;;;3.85;2.50;;;;;;;;;;10465635;28;20037;-76
2022/07/11 20:43:12;;;;;;;5.40;2.40;;;;;;;;;;10477211;28;20040;-76
2022/07/11 20:48:16;;;;;;;4.03;2.43;;;;;;;;;;10475731;28;20302;-77
2022/07/11 20:53:18;;;;;;;4.00;2.30;;;;;;;;;;10462659;28;20278;-74
2022/07/11 20:58:25;;;;;;;4.17;2.03;;;;;;;;;;10481489;28;20045;-76
2022/07/11 21:03:29;;;;;;;4.03;2.35;;;;;;;;;;10480784;28;20044;-76
2022/07/11 21:08:32;;;;;;;5.07;3.00;;;;;;;;;;10470394;28;20044;-76
2022/07/11 21:13:35;;;;;;;;;;;;;;;;;;10477965;28;20037;-76
2022/07/11 21:18:39;;;;;;;7.95;2.42;;;;;;;;;;10491286;28;20027;-76
2022/07/11 21:23:42;;;;;;;3.28;2.17;;;;;;;;;;10470376;28;20041;-75
2022/07/11 21:28:45;;;;;;;;;;;;;;;;;;10498229;28;20119;-76
2022/07/11 21:33:49;;;;;;;4.80;2.80;;;;;;;;;;10479011;28;19963;-75
2022/07/11 21:38:52;;;;;;;5.03;2.80;;;;;;;;;;10492714;28;20032;-76
2022/07/11 21:43:55;;;;;;;4.78;2.67;;;;;;;;;;10493289;28;20460;-76
2022/07/11 21:49:00;;;;;;;5.38;3.00;;;;;;;;;;10480601;28;20627;-77
2022/07/11 21:54:03;;;;;;;4.50;2.58;;;;;;;;;;10475499;28;20043;-76
2022/07/11 21:59:06;;;;;;;3.97;2.30;;;;;;;;;;10480719;28;20211;-76
2022/07/11 22:04:10;;;;;;;4.97;3.07;;;;;;;;;;10482812;28;20036;-77
2022/07/11 22:09:13;;;;;;;5.50;2.92;;;;;;;;;;10478060;28;20528;-77
2022/07/11 22:14:16;;;;;;;4.65;2.72;;;;;;;;;;10492226;28;20128;-76
2022/07/11 22:19:20;;;;;;;6.47;3.23;;;;;;;;;;10488575;28;20536;-76
2022/07/11 22:24:22;;;;;;;5.80;2.85;;;;;;;;;;10509142;28;20608;-78
2022/07/11 22:29:25;;;;;;;10.40;5.10;;;;;;;;;;10495392;28;20151;-77
2022/07/11 22:34:29;;;;;;;10.50;3.55;;;;;;;;;;10496669;28;20476;-77
2022/07/11 22:39:32;;;;;;;4.32;2.75;;;;;;;;;;10476693;28;20101;-75
2022/07/11 22:44:35;;;;;;;;;;;;;;;;;;10470539;28;20059;-77
2022/07/11 22:49:59;;;;;;;4.70;2.88;;;;;;;;;;10471838;28;19928;-77
2022/07/11 22:55:02;;;;;;;6.03;2.95;;;;;;;;;;10498211;28;20067;-76
2022/07/11 23:00:26;;;;;;;4.03;2.67;;;;;;;;;;10474812;28;20040;-77
2022/07/11 23:05:29;;;;;;;;;;;;;;;;;;10484953;28;20577;-76
2022/07/11 23:10:34;;;;;;;5.30;3.40;;;;;;;;;;10486865;28;20218;-77
2022/07/11 23:15:38;;;;;;;6.65;3.50;;;;;;;;;;10469295;28;20051;-76
2022/07/11 23:20:42;;;;;;;5.43;3.30;;;;;;;;;;10496318;28;20411;-77
2022/07/11 23:25:47;;;;;;;7.20;3.67;;;;;;;;;;10474766;28;20101;-76
2022/07/11 23:30:50;;;;;;;6.47;3.38;;;;;;;;;;10486608;28;20039;-77
2022/07/11 23:35:52;;;;;;;6.37;3.60;;;;;;;;;;10471608;28;20039;-76
2022/07/11 23:40:57;;;;;;;5.55;3.20;;;;;;;;;;10482312;28;20155;-77
2022/07/11 23:46:00;;;;;;;5.60;3.40;;;;;;;;;;10475045;28;20032;-77
2022/07/11 23:51:03;;;;;;;5.38;3.20;;;;;;;;;;10487636;28;20473;-76
2022/07/11 23:56:07;;;;;;;5.13;3.33;;;;;;;;;;10473481;28;20055;-75
